sensor_id;sensor_type;location;lat;lon;timestamp;temperature;humidity
26909;DHT22;14477;51.038;4.588;2023-01-16T00:01:21;6.80;99.90
26909;DHT22;14477;51.038;4.588;2023-01-16T00:03:47;6.80;99.90
26909;DHT22;14477;51.038;4.588;2023-01-16T00:06:13;6.80;99.90
26909;DHT22;14477;51.038;4.588;2023-01-16T00:08:41;6.80;99.90
26909;DHT22;14477;51.038;4.588;2023-01-16T00:11:07;6.80;99.90
26909;DHT22;14477;51.038;4.588;2023-01-16T00:13:33;6.80;99.90
26909;DHT22;14477;51.038;4.588;2023-01-16T00:15:59;6.70;99.90
26909;DHT22;14477;51.038;4.588;2023-01-16T00:18:25;6.80;99.90
26909;DHT22;14477;51.038;4.588;2023-01-16T00:20:51;6.80;99.90
26909;DHT22;14477;51.038;4.588;2023-01-16T00:23:17;6.70;99.90
26909;DHT22;14477;51.038;4.588;2023-01-16T00:25:43;6.80;99.90
26909;DHT22;14477;51.038;4.588;2023-01-16T00:28:10;6.70;99.90
26909;DHT22;14477;51.038;4.588;2023-01-16T00:30:37;6.80;99.90
26909;DHT22;14477;51.038;4.588;2023-01-16T00:33:03;6.80;99.90
26909;DHT22;14477;51.038;4.588;2023-01-16T00:35:30;6.80;99.90
26909;DHT22;14477;51.038;4.588;2023-01-16T00:37:55;6.80;99.90
26909;DHT22;14477;51.038;4.588;2023-01-16T00:40:22;6.80;99.90
26909;DHT22;14477;51.038;4.588;2023-01-16T00:42:48;6.70;99.90
26909;DHT22;14477;51.038;4.588;2023-01-16T00:45:13;6.70;99.90
26909;DHT22;14477;51.038;4.588;2023-01-16T00:47:39;6.70;99.90
26909;DHT22;14477;51.038;4.588;2023-01-16T00:50:05;6.70;99.90
26909;DHT22;14477;51.038;4.588;2023-01-16T00:52:31;6.70;99.90
26909;DHT22;14477;51.038;4.588;2023-01-16T00:54:57;6.60;99.90
26909;DHT22;14477;51.038;4.588;2023-01-16T00:57:23;6.60;99.90
26909;DHT22;14477;51.038;4.588;2023-01-16T00:59:49;6.60;99.90
26909;DHT22;14477;51.038;4.588;2023-01-16T01:02:15;6.60;99.90
26909;DHT22;14477;51.038;4.588;2023-01-16T01:04:41;6.60;99.90
26909;DHT22;14477;51.038;4.588;2023-01-16T01:07:07;6.50;99.90
26909;DHT22;14477;51.038;4.588;2023-01-16T01:09:32;6.50;99.90
26909;DHT22;14477;51.038;4.588;2023-01-16T01:11:59;6.50;99.90
26909;DHT22;14477;51.038;4.588;2023-01-16T01:14:25;6.50;99.90
26909;DHT22;14477;51.038;4.588;2023-01-16T01:16:51;6.50;99.90
26909;DHT22;14477;51.038;4.588;2023-01-16T01:19:17;6.50;99.90
26909;DHT22;14477;51.038;4.588;2023-01-16T01:21:43;6.50;99.90
26909;DHT22;14477;51.038;4.588;2023-01-16T01:24:09;6.50;99.90
26909;DHT22;14477;51.038;4.588;2023-01-16T01:26:35;6.50;99.90
26909;DHT22;14477;51.038;4.588;2023-01-16T01:29:01;6.50;99.90
26909;DHT22;14477;51.038;4.588;2023-01-16T01:31:27;6.40;99.90
26909;DHT22;14477;51.038;4.588;2023-01-16T01:33:53;6.40;99.90
26909;DHT22;14477;51.038;4.588;2023-01-16T01:36:19;6.40;99.90
26909;DHT22;14477;51.038;4.588;2023-01-16T01:38:44;6.40;99.90
26909;DHT22;14477;51.038;4.588;2023-01-16T01:41:15;6.40;99.90
26909;DHT22;14477;51.038;4.588;2023-01-16T01:43:51;6.40;99.90
26909;DHT22;14477;51.038;4.588;2023-01-16T01:46:22;6.40;99.90
26909;DHT22;14477;51.038;4.588;2023-01-16T01:49:04;6.40;99.90
26909;DHT22;14477;51.038;4.588;2023-01-16T01:51:38;6.40;99.90
26909;DHT22;14477;51.038;4.588;2023-01-16T01:54:10;6.40;99.90
26909;DHT22;14477;51.038;4.588;2023-01-16T01:56:46;6.50;99.90
26909;DHT22;14477;51.038;4.588;2023-01-16T01:59:35;6.40;99.90
26909;DHT22;14477;51.038;4.588;2023-01-16T02:02:04;6.40;99.90
26909;DHT22;14477;51.038;4.588;2023-01-16T02:04:35;6.50;99.90
26909;DHT22;14477;51.038;4.588;2023-01-16T02:07:07;6.40;99.90
26909;DHT22;14477;51.038;4.588;2023-01-16T02:09:34;6.50;99.90
26909;DHT22;14477;51.038;4.588;2023-01-16T02:12:13;6.50;99.90
26909;DHT22;14477;51.038;4.588;2023-01-16T02:14:41;6.50;99.90
26909;DHT22;14477;51.038;4.588;2023-01-16T02:17:12;6.50;99.90
26909;DHT22;14477;51.038;4.588;2023-01-16T02:42:37;6.50;99.90
26909;DHT22;14477;51.038;4.588;2023-01-16T02:48:10;6.50;99.90
26909;DHT22;14477;51.038;4.588;2023-01-16T02:55:47;6.60;99.90
26909;DHT22;14477;51.038;4.588;2023-01-16T02:58:16;6.60;99.90
26909;DHT22;14477;51.038;4.588;2023-01-16T03:00:54;6.70;99.90
26909;DHT22;14477;51.038;4.588;2023-01-16T03:09:01;6.90;99.90
26909;DHT22;14477;51.038;4.588;2023-01-16T03:11:38;6.90;99.90
26909;DHT22;14477;51.038;4.588;2023-01-16T03:14:24;7.00;99.90
26909;DHT22;14477;51.038;4.588;2023-01-16T03:22:21;7.20;99.90
26909;DHT22;14477;51.038;4.588;2023-01-16T03:30:02;7.30;99.90
26909;DHT22;14477;51.038;4.588;2023-01-16T03:32:53;7.30;99.90
26909;DHT22;14477;51.038;4.588;2023-01-16T03:35:34;7.40;99.90
26909;DHT22;14477;51.038;4.588;2023-01-16T03:38:06;7.40;99.90
26909;DHT22;14477;51.038;4.588;2023-01-16T03:40:35;7.50;99.90
26909;DHT22;14477;51.038;4.588;2023-01-16T03:43:10;7.50;99.90
26909;DHT22;14477;51.038;4.588;2023-01-16T03:45:49;7.50;99.90
26909;DHT22;14477;51.038;4.588;2023-01-16T03:48:20;7.50;99.90
26909;DHT22;14477;51.038;4.588;2023-01-16T03:50:52;7.60;99.90
26909;DHT22;14477;51.038;4.588;2023-01-16T03:53:23;7.60;99.90
26909;DHT22;14477;51.038;4.588;2023-01-16T03:55:59;7.60;99.90
26909;DHT22;14477;51.038;4.588;2023-01-16T03:58:36;7.60;99.90
26909;DHT22;14477;51.038;4.588;2023-01-16T04:04:20;7.60;99.90
26909;DHT22;14477;51.038;4.588;2023-01-16T04:09:21;7.70;99.90
26909;DHT22;14477;51.038;4.588;2023-01-16T04:11:50;7.70;99.90
26909;DHT22;14477;51.038;4.588;2023-01-16T04:14:18;7.70;99.90
26909;DHT22;14477;51.038;4.588;2023-01-16T04:16:45;7.70;99.90
26909;DHT22;14477;51.038;4.588;2023-01-16T04:19:13;7.70;99.90
26909;DHT22;14477;51.038;4.588;2023-01-16T04:21:44;7.80;99.90
26909;DHT22;14477;51.038;4.588;2023-01-16T04:24:10;7.80;99.90
26909;DHT22;14477;51.038;4.588;2023-01-16T04:26:36;7.80;99.90
26909;DHT22;14477;51.038;4.588;2023-01-16T04:29:02;7.80;99.90
26909;DHT22;14477;51.038;4.588;2023-01-16T04:31:28;7.80;99.90
26909;DHT22;14477;51.038;4.588;2023-01-16T04:33:54;7.90;99.90
26909;DHT22;14477;51.038;4.588;2023-01-16T04:36:20;7.90;99.90
26909;DHT22;14477;51.038;4.588;2023-01-16T04:38:46;7.80;99.90
26909;DHT22;14477;51.038;4.588;2023-01-16T04:41:12;7.90;99.90
26909;DHT22;14477;51.038;4.588;2023-01-16T04:43:58;7.80;99.90
26909;DHT22;14477;51.038;4.588;2023-01-16T04:46:24;7.80;99.90
26909;DHT22;14477;51.038;4.588;2023-01-16T04:48:49;7.80;99.90
26909;DHT22;14477;51.038;4.588;2023-01-16T04:51:15;7.80;99.90
26909;DHT22;14477;51.038;4.588;2023-01-16T04:53:41;7.80;99.90
26909;DHT22;14477;51.038;4.588;2023-01-16T04:56:07;7.70;99.90
26909;DHT22;14477;51.038;4.588;2023-01-16T04:58:32;7.80;99.90
26909;DHT22;14477;51.038;4.588;2023-01-16T05:00:58;7.70;99.90
26909;DHT22;14477;51.038;4.588;2023-01-16T05:03:24;7.70;99.90
26909;DHT22;14477;51.038;4.588;2023-01-16T05:05:49;7.70;99.90
26909;DHT22;14477;51.038;4.588;2023-01-16T05:08:15;7.70;99.90
26909;DHT22;14477;51.038;4.588;2023-01-16T05:10:41;7.70;99.90
26909;DHT22;14477;51.038;4.588;2023-01-16T05:13:07;7.70;99.90
26909;DHT22;14477;51.038;4.588;2023-01-16T05:15:32;7.70;99.90
26909;DHT22;14477;51.038;4.588;2023-01-16T05:17:58;7.70;99.90
26909;DHT22;14477;51.038;4.588;2023-01-16T05:20:24;7.70;99.90
26909;DHT22;14477;51.038;4.588;2023-01-16T05:22:49;7.70;99.90
26909;DHT22;14477;51.038;4.588;2023-01-16T05:25:15;7.60;99.90
26909;DHT22;14477;51.038;4.588;2023-01-16T05:27:41;7.60;99.90
26909;DHT22;14477;51.038;4.588;2023-01-16T05:30:08;7.60;99.90
26909;DHT22;14477;51.038;4.588;2023-01-16T05:32:33;7.60;99.90
26909;DHT22;14477;51.038;4.588;2023-01-16T05:35:00;7.60;99.90
26909;DHT22;14477;51.038;4.588;2023-01-16T05:37:27;7.60;99.90
26909;DHT22;14477;51.038;4.588;2023-01-16T05:39:54;7.60;99.90
26909;DHT22;14477;51.038;4.588;2023-01-16T05:42:23;7.60;99.90
26909;DHT22;14477;51.038;4.588;2023-01-16T05:44:51;7.60;99.90
26909;DHT22;14477;51.038;4.588;2023-01-16T05:47:21;7.60;99.90
26909;DHT22;14477;51.038;4.588;2023-01-16T05:49:47;7.60;99.90
26909;DHT22;14477;51.038;4.588;2023-01-16T05:52:13;7.60;99.90
26909;DHT22;14477;51.038;4.588;2023-01-16T05:54:39;7.50;99.90
26909;DHT22;14477;51.038;4.588;2023-01-16T05:57:05;7.50;99.90
26909;DHT22;14477;51.038;4.588;2023-01-16T05:59:30;7.60;99.90
26909;DHT22;14477;51.038;4.588;2023-01-16T06:01:56;7.60;99.90
26909;DHT22;14477;51.038;4.588;2023-01-16T06:04:23;7.60;99.90
26909;DHT22;14477;51.038;4.588;2023-01-16T06:06:49;7.50;99.90
26909;DHT22;14477;51.038;4.588;2023-01-16T06:09:15;7.50;99.90
26909;DHT22;14477;51.038;4.588;2023-01-16T06:11:40;7.60;99.90
26909;DHT22;14477;51.038;4.588;2023-01-16T06:14:07;7.50;99.90
26909;DHT22;14477;51.038;4.588;2023-01-16T06:16:33;7.60;99.90
26909;DHT22;14477;51.038;4.588;2023-01-16T06:19:00;7.50;99.90
26909;DHT22;14477;51.038;4.588;2023-01-16T06:21:26;7.50;99.90
26909;DHT22;14477;51.038;4.588;2023-01-16T06:23:52;7.50;99.90
26909;DHT22;14477;51.038;4.588;2023-01-16T06:26:18;7.50;99.90
26909;DHT22;14477;51.038;4.588;2023-01-16T06:28:45;7.50;99.90
26909;DHT22;14477;51.038;4.588;2023-01-16T06:31:12;7.50;99.90
26909;DHT22;14477;51.038;4.588;2023-01-16T06:33:37;7.50;99.90
26909;DHT22;14477;51.038;4.588;2023-01-16T06:36:03;7.40;99.90
26909;DHT22;14477;51.038;4.588;2023-01-16T06:38:30;7.50;99.90
26909;DHT22;14477;51.038;4.588;2023-01-16T06:40:55;7.40;99.90
26909;DHT22;14477;51.038;4.588;2023-01-16T06:43:26;7.40;99.90
26909;DHT22;14477;51.038;4.588;2023-01-16T06:45:52;7.40;99.90
26909;DHT22;14477;51.038;4.588;2023-01-16T06:48:19;7.40;99.90
26909;DHT22;14477;51.038;4.588;2023-01-16T06:50:45;7.40;99.90
26909;DHT22;14477;51.038;4.588;2023-01-16T06:53:12;7.40;99.90
26909;DHT22;14477;51.038;4.588;2023-01-16T06:55:39;7.40;99.90
26909;DHT22;14477;51.038;4.588;2023-01-16T06:58:05;7.40;99.90
26909;DHT22;14477;51.038;4.588;2023-01-16T07:00:31;7.40;99.90
26909;DHT22;14477;51.038;4.588;2023-01-16T07:02:57;7.40;99.90
26909;DHT22;14477;51.038;4.588;2023-01-16T07:05:24;7.40;99.90
26909;DHT22;14477;51.038;4.588;2023-01-16T07:07:51;7.40;99.90
26909;DHT22;14477;51.038;4.588;2023-01-16T07:10:17;7.40;99.90
26909;DHT22;14477;51.038;4.588;2023-01-16T07:12:46;7.40;99.90
26909;DHT22;14477;51.038;4.588;2023-01-16T07:15:13;7.40;99.90
26909;DHT22;14477;51.038;4.588;2023-01-16T07:17:57;7.40;99.90
26909;DHT22;14477;51.038;4.588;2023-01-16T07:20:48;7.40;99.90
26909;DHT22;14477;51.038;4.588;2023-01-16T07:23:34;7.40;99.90
26909;DHT22;14477;51.038;4.588;2023-01-16T07:26:02;7.40;99.90
26909;DHT22;14477;51.038;4.588;2023-01-16T07:28:29;7.40;99.90
26909;DHT22;14477;51.038;4.588;2023-01-16T07:30:56;7.40;99.90
26909;DHT22;14477;51.038;4.588;2023-01-16T07:33:23;7.40;99.90
26909;DHT22;14477;51.038;4.588;2023-01-16T07:35:49;7.30;99.90
26909;DHT22;14477;51.038;4.588;2023-01-16T07:38:15;7.30;99.90
26909;DHT22;14477;51.038;4.588;2023-01-16T07:40:41;7.30;99.90
26909;DHT22;14477;51.038;4.588;2023-01-16T07:43:06;7.30;99.90
26909;DHT22;14477;51.038;4.588;2023-01-16T07:45:32;7.30;99.90
26909;DHT22;14477;51.038;4.588;2023-01-16T07:47:58;7.30;99.90
26909;DHT22;14477;51.038;4.588;2023-01-16T07:50:26;7.20;99.90
26909;DHT22;14477;51.038;4.588;2023-01-16T07:52:52;7.20;99.90
26909;DHT22;14477;51.038;4.588;2023-01-16T07:55:17;7.20;99.90
26909;DHT22;14477;51.038;4.588;2023-01-16T07:57:43;7.20;99.90
26909;DHT22;14477;51.038;4.588;2023-01-16T08:00:10;7.20;99.90
26909;DHT22;14477;51.038;4.588;2023-01-16T08:02:37;7.10;99.90
26909;DHT22;14477;51.038;4.588;2023-01-16T08:05:03;7.10;99.90
26909;DHT22;14477;51.038;4.588;2023-01-16T08:07:29;7.10;99.90
26909;DHT22;14477;51.038;4.588;2023-01-16T08:09:55;7.10;99.90
26909;DHT22;14477;51.038;4.588;2023-01-16T08:12:21;7.10;99.90
26909;DHT22;14477;51.038;4.588;2023-01-16T08:14:46;7.10;99.90
26909;DHT22;14477;51.038;4.588;2023-01-16T08:17:12;7.10;99.90
26909;DHT22;14477;51.038;4.588;2023-01-16T08:19:38;7.10;99.90
26909;DHT22;14477;51.038;4.588;2023-01-16T08:22:04;7.10;99.90
26909;DHT22;14477;51.038;4.588;2023-01-16T08:24:30;7.10;99.90
26909;DHT22;14477;51.038;4.588;2023-01-16T08:26:56;7.10;99.90
26909;DHT22;14477;51.038;4.588;2023-01-16T08:29:22;7.10;99.90
26909;DHT22;14477;51.038;4.588;2023-01-16T08:31:48;7.10;99.90
26909;DHT22;14477;51.038;4.588;2023-01-16T08:34:15;7.10;99.90
26909;DHT22;14477;51.038;4.588;2023-01-16T08:36:40;7.10;99.90
26909;DHT22;14477;51.038;4.588;2023-01-16T08:39:09;7.10;99.90
26909;DHT22;14477;51.038;4.588;2023-01-16T08:41:34;7.10;99.90
26909;DHT22;14477;51.038;4.588;2023-01-16T08:44:19;7.10;99.90
26909;DHT22;14477;51.038;4.588;2023-01-16T08:47:10;7.10;99.90
26909;DHT22;14477;51.038;4.588;2023-01-16T08:49:55;7.10;99.90
26909;DHT22;14477;51.038;4.588;2023-01-16T08:52:39;7.20;99.90
26909;DHT22;14477;51.038;4.588;2023-01-16T08:55:06;7.20;99.90
26909;DHT22;14477;51.038;4.588;2023-01-16T08:57:32;7.20;99.90
26909;DHT22;14477;51.038;4.588;2023-01-16T08:59:59;7.20;99.90
26909;DHT22;14477;51.038;4.588;2023-01-16T09:02:26;7.30;99.90
26909;DHT22;14477;51.038;4.588;2023-01-16T09:04:52;7.40;99.90
26909;DHT22;14477;51.038;4.588;2023-01-16T09:07:21;7.40;99.90
26909;DHT22;14477;51.038;4.588;2023-01-16T09:09:47;7.50;99.90
26909;DHT22;14477;51.038;4.588;2023-01-16T09:12:14;7.50;99.90
26909;DHT22;14477;51.038;4.588;2023-01-16T09:14:59;7.50;99.90
26909;DHT22;14477;51.038;4.588;2023-01-16T09:17:26;7.60;99.90
26909;DHT22;14477;51.038;4.588;2023-01-16T09:19:52;7.60;99.90
26909;DHT22;14477;51.038;4.588;2023-01-16T09:22:18;7.60;99.90
26909;DHT22;14477;51.038;4.588;2023-01-16T09:24:44;7.60;99.90
26909;DHT22;14477;51.038;4.588;2023-01-16T09:27:10;7.60;99.90
26909;DHT22;14477;51.038;4.588;2023-01-16T09:29:38;7.60;99.90
26909;DHT22;14477;51.038;4.588;2023-01-16T09:32:05;7.60;99.90
26909;DHT22;14477;51.038;4.588;2023-01-16T09:34:37;7.60;99.90
26909;DHT22;14477;51.038;4.588;2023-01-16T09:37:05;7.60;99.90
26909;DHT22;14477;51.038;4.588;2023-01-16T09:39:32;7.60;99.90
26909;DHT22;14477;51.038;4.588;2023-01-16T09:45:19;7.50;99.90
26909;DHT22;14477;51.038;4.588;2023-01-16T09:47:50;7.50;99.90
26909;DHT22;14477;51.038;4.588;2023-01-16T09:50:30;7.60;99.90
26909;DHT22;14477;51.038;4.588;2023-01-16T09:52:58;7.50;99.90
26909;DHT22;14477;51.038;4.588;2023-01-16T09:55:48;7.60;99.90
26909;DHT22;14477;51.038;4.588;2023-01-16T09:58:36;7.60;99.90
26909;DHT22;14477;51.038;4.588;2023-01-16T10:01:20;7.60;99.90
26909;DHT22;14477;51.038;4.588;2023-01-16T10:03:48;7.60;99.90
26909;DHT22;14477;51.038;4.588;2023-01-16T10:11:21;7.80;99.90
26909;DHT22;14477;51.038;4.588;2023-01-16T10:19:23;7.90;99.90
26909;DHT22;14477;51.038;4.588;2023-01-16T10:27:36;8.00;99.90
26909;DHT22;14477;51.038;4.588;2023-01-16T10:30:16;8.10;99.90
26909;DHT22;14477;51.038;4.588;2023-01-16T10:32:46;8.20;99.90
26909;DHT22;14477;51.038;4.588;2023-01-16T10:35:25;8.20;99.90
26909;DHT22;14477;51.038;4.588;2023-01-16T10:37:53;8.20;99.90
26909;DHT22;14477;51.038;4.588;2023-01-16T10:40:25;8.20;99.90
26909;DHT22;14477;51.038;4.588;2023-01-16T10:43:35;8.30;99.90
26909;DHT22;14477;51.038;4.588;2023-01-16T10:46:21;8.30;99.90
26909;DHT22;14477;51.038;4.588;2023-01-16T10:49:14;8.40;99.90
26909;DHT22;14477;51.038;4.588;2023-01-16T10:51:54;8.40;99.90
26909;DHT22;14477;51.038;4.588;2023-01-16T10:54:21;8.50;99.90
26909;DHT22;14477;51.038;4.588;2023-01-16T10:56:47;8.50;99.90
26909;DHT22;14477;51.038;4.588;2023-01-16T10:59:15;8.60;99.90
26909;DHT22;14477;51.038;4.588;2023-01-16T11:01:42;8.60;99.90
26909;DHT22;14477;51.038;4.588;2023-01-16T11:04:11;8.60;99.90
26909;DHT22;14477;51.038;4.588;2023-01-16T11:06:38;8.60;99.90
26909;DHT22;14477;51.038;4.588;2023-01-16T11:09:15;8.60;99.90
26909;DHT22;14477;51.038;4.588;2023-01-16T11:11:42;8.50;99.90
26909;DHT22;14477;51.038;4.588;2023-01-16T11:14:41;8.50;99.90
26909;DHT22;14477;51.038;4.588;2023-01-16T11:17:28;8.50;99.90
26909;DHT22;14477;51.038;4.588;2023-01-16T11:20:31;8.50;99.90
26909;DHT22;14477;51.038;4.588;2023-01-16T11:23:20;8.40;99.90
26909;DHT22;14477;51.038;4.588;2023-01-16T11:25:46;8.30;99.90
26909;DHT22;14477;51.038;4.588;2023-01-16T11:28:21;8.30;99.90
26909;DHT22;14477;51.038;4.588;2023-01-16T11:30:50;8.30;99.90
26909;DHT22;14477;51.038;4.588;2023-01-16T11:33:19;8.30;99.90
26909;DHT22;14477;51.038;4.588;2023-01-16T11:35:55;8.30;99.90
26909;DHT22;14477;51.038;4.588;2023-01-16T11:38:23;8.30;99.90
26909;DHT22;14477;51.038;4.588;2023-01-16T11:40:50;8.30;99.90
26909;DHT22;14477;51.038;4.588;2023-01-16T11:43:22;8.30;99.90
26909;DHT22;14477;51.038;4.588;2023-01-16T11:46:38;8.30;99.90
26909;DHT22;14477;51.038;4.588;2023-01-16T11:49:15;8.40;99.90
26909;DHT22;14477;51.038;4.588;2023-01-16T11:51:41;8.40;99.90
26909;DHT22;14477;51.038;4.588;2023-01-16T11:54:14;8.40;99.90
26909;DHT22;14477;51.038;4.588;2023-01-16T12:14:29;8.70;99.90
26909;DHT22;14477;51.038;4.588;2023-01-16T12:23:15;8.70;99.90
26909;DHT22;14477;51.038;4.588;2023-01-16T12:25:52;8.70;99.90
26909;DHT22;14477;51.038;4.588;2023-01-16T12:28:37;8.70;99.90
26909;DHT22;14477;51.038;4.588;2023-01-16T12:39:22;8.50;99.90
26909;DHT22;14477;51.038;4.588;2023-01-16T12:42:27;8.50;99.90
26909;DHT22;14477;51.038;4.588;2023-01-16T12:51:03;8.40;99.90
26909;DHT22;14477;51.038;4.588;2023-01-16T12:59:04;8.50;99.90
26909;DHT22;14477;51.038;4.588;2023-01-16T13:01:41;8.40;99.90
26909;DHT22;14477;51.038;4.588;2023-01-16T13:04:11;8.50;99.90
26909;DHT22;14477;51.038;4.588;2023-01-16T13:07:18;8.50;99.90
26909;DHT22;14477;51.038;4.588;2023-01-16T13:09:44;8.60;99.90
26909;DHT22;14477;51.038;4.588;2023-01-16T13:12:19;8.60;99.90
26909;DHT22;14477;51.038;4.588;2023-01-16T13:15:11;8.60;99.90
26909;DHT22;14477;51.038;4.588;2023-01-16T13:17:59;8.60;99.90
26909;DHT22;14477;51.038;4.588;2023-01-16T13:20:27;8.70;99.90
26909;DHT22;14477;51.038;4.588;2023-01-16T13:23:16;8.70;99.90
26909;DHT22;14477;51.038;4.588;2023-01-16T13:25:44;8.70;99.90
26909;DHT22;14477;51.038;4.588;2023-01-16T13:30:42;8.70;99.90
26909;DHT22;14477;51.038;4.588;2023-01-16T13:35:50;8.70;99.90
26909;DHT22;14477;51.038;4.588;2023-01-16T13:38:49;8.70;99.90
26909;DHT22;14477;51.038;4.588;2023-01-16T13:41:24;8.80;99.90
26909;DHT22;14477;51.038;4.588;2023-01-16T13:44:14;8.80;99.90
26909;DHT22;14477;51.038;4.588;2023-01-16T13:47:13;8.80;99.90
26909;DHT22;14477;51.038;4.588;2023-01-16T13:49:39;8.90;99.90
26909;DHT22;14477;51.038;4.588;2023-01-16T13:52:18;8.90;99.90
26909;DHT22;14477;51.038;4.588;2023-01-16T13:54:45;8.90;99.90
26909;DHT22;14477;51.038;4.588;2023-01-16T13:57:17;9.00;99.90
26909;DHT22;14477;51.038;4.588;2023-01-16T13:59:56;9.00;99.90
26909;DHT22;14477;51.038;4.588;2023-01-16T14:02:28;9.00;99.90
26909;DHT22;14477;51.038;4.588;2023-01-16T14:13:34;9.00;99.90
26909;DHT22;14477;51.038;4.588;2023-01-16T14:21:25;9.00;99.90
26909;DHT22;14477;51.038;4.588;2023-01-16T14:23:57;9.00;99.90
26909;DHT22;14477;51.038;4.588;2023-01-16T14:29:15;9.00;99.90
26909;DHT22;14477;51.038;4.588;2023-01-16T14:31:50;9.00;99.90
26909;DHT22;14477;51.038;4.588;2023-01-16T14:34:21;9.10;99.90
26909;DHT22;14477;51.038;4.588;2023-01-16T14:36:50;9.00;99.90
26909;DHT22;14477;51.038;4.588;2023-01-16T14:39:38;9.00;99.90
26909;DHT22;14477;51.038;4.588;2023-01-16T14:42:14;9.00;99.90
26909;DHT22;14477;51.038;4.588;2023-01-16T14:50:58;9.00;99.90
26909;DHT22;14477;51.038;4.588;2023-01-16T14:53:44;9.00;99.90
26909;DHT22;14477;51.038;4.588;2023-01-16T14:56:33;9.00;99.90
26909;DHT22;14477;51.038;4.588;2023-01-16T14:59:07;9.00;99.90
26909;DHT22;14477;51.038;4.588;2023-01-16T15:01:42;9.00;99.90
26909;DHT22;14477;51.038;4.588;2023-01-16T15:05:13;8.90;99.90
26909;DHT22;14477;51.038;4.588;2023-01-16T15:10:04;8.90;99.90
26909;DHT22;14477;51.038;4.588;2023-01-16T15:12:41;8.80;99.90
26909;DHT22;14477;51.038;4.588;2023-01-16T15:15:30;8.80;99.90
26909;DHT22;14477;51.038;4.588;2023-01-16T15:17:58;8.80;99.90
26909;DHT22;14477;51.038;4.588;2023-01-16T15:20:46;8.70;99.90
26909;DHT22;14477;51.038;4.588;2023-01-16T15:23:35;8.70;99.90
26909;DHT22;14477;51.038;4.588;2023-01-16T15:31:30;8.60;99.90
26909;DHT22;14477;51.038;4.588;2023-01-16T15:34:16;8.60;99.90
26909;DHT22;14477;51.038;4.588;2023-01-16T15:36:51;8.50;99.90
26909;DHT22;14477;51.038;4.588;2023-01-16T15:39:43;8.50;99.90
26909;DHT22;14477;51.038;4.588;2023-01-16T15:42:25;8.60;99.90
26909;DHT22;14477;51.038;4.588;2023-01-16T15:50:58;8.50;99.90
26909;DHT22;14477;51.038;4.588;2023-01-16T15:53:39;8.40;99.90
26909;DHT22;14477;51.038;4.588;2023-01-16T15:56:33;8.40;99.90
26909;DHT22;14477;51.038;4.588;2023-01-16T15:58:56;8.40;99.90
26909;DHT22;14477;51.038;4.588;2023-01-16T16:01:27;8.30;99.90
26909;DHT22;14477;51.038;4.588;2023-01-16T16:03:54;8.20;99.90
26909;DHT22;14477;51.038;4.588;2023-01-16T16:06:21;8.20;99.90
26909;DHT22;14477;51.038;4.588;2023-01-16T16:08:51;8.20;99.90
26909;DHT22;14477;51.038;4.588;2023-01-16T16:11:25;8.10;99.90
26909;DHT22;14477;51.038;4.588;2023-01-16T16:17:22;8.00;99.90
26909;DHT22;14477;51.038;4.588;2023-01-16T16:20:31;7.90;99.90
26909;DHT22;14477;51.038;4.588;2023-01-16T16:23:09;7.80;99.90
26909;DHT22;14477;51.038;4.588;2023-01-16T16:25:53;7.80;99.90
26909;DHT22;14477;51.038;4.588;2023-01-16T16:31:14;7.80;99.90
26909;DHT22;14477;51.038;4.588;2023-01-16T16:33:42;7.70;99.90
26909;DHT22;14477;51.038;4.588;2023-01-16T16:36:14;7.70;99.90
26909;DHT22;14477;51.038;4.588;2023-01-16T16:38:46;7.60;99.90
26909;DHT22;14477;51.038;4.588;2023-01-16T16:48:57;7.40;99.90
26909;DHT22;14477;51.038;4.588;2023-01-16T16:51:27;7.40;99.90
26909;DHT22;14477;51.038;4.588;2023-01-16T16:54:14;7.30;99.90
26909;DHT22;14477;51.038;4.588;2023-01-16T16:56:46;7.20;99.90
26909;DHT22;14477;51.038;4.588;2023-01-16T16:59:21;7.20;99.90
26909;DHT22;14477;51.038;4.588;2023-01-16T17:01:51;7.20;99.90
26909;DHT22;14477;51.038;4.588;2023-01-16T17:04:18;7.20;99.90
26909;DHT22;14477;51.038;4.588;2023-01-16T17:06:46;7.20;99.90
26909;DHT22;14477;51.038;4.588;2023-01-16T17:09:15;7.20;99.90
26909;DHT22;14477;51.038;4.588;2023-01-16T17:11:44;7.20;99.90
26909;DHT22;14477;51.038;4.588;2023-01-16T17:14:10;7.20;99.90
26909;DHT22;14477;51.038;4.588;2023-01-16T17:16:37;7.20;99.90
26909;DHT22;14477;51.038;4.588;2023-01-16T17:19:22;7.20;99.90
26909;DHT22;14477;51.038;4.588;2023-01-16T17:21:50;7.20;99.90
26909;DHT22;14477;51.038;4.588;2023-01-16T17:24:20;7.20;99.90
26909;DHT22;14477;51.038;4.588;2023-01-16T17:26:46;7.20;99.90
26909;DHT22;14477;51.038;4.588;2023-01-16T17:29:12;7.20;99.90
26909;DHT22;14477;51.038;4.588;2023-01-16T17:31:41;7.20;99.90
26909;DHT22;14477;51.038;4.588;2023-01-16T17:34:18;7.20;99.90
26909;DHT22;14477;51.038;4.588;2023-01-16T17:36:46;7.20;99.90
26909;DHT22;14477;51.038;4.588;2023-01-16T17:39:12;7.30;99.90
26909;DHT22;14477;51.038;4.588;2023-01-16T17:41:38;7.20;99.90
26909;DHT22;14477;51.038;4.588;2023-01-16T17:44:14;7.30;99.90
26909;DHT22;14477;51.038;4.588;2023-01-16T17:47:07;7.20;99.90
26909;DHT22;14477;51.038;4.588;2023-01-16T17:49:33;7.30;99.90
26909;DHT22;14477;51.038;4.588;2023-01-16T17:52:19;7.30;99.90
26909;DHT22;14477;51.038;4.588;2023-01-16T17:54:44;7.30;99.90
26909;DHT22;14477;51.038;4.588;2023-01-16T17:57:29;7.30;99.90
26909;DHT22;14477;51.038;4.588;2023-01-16T17:59:54;7.40;99.90
26909;DHT22;14477;51.038;4.588;2023-01-16T18:02:20;7.40;99.90
26909;DHT22;14477;51.038;4.588;2023-01-16T18:04:46;7.40;99.90
26909;DHT22;14477;51.038;4.588;2023-01-16T18:07:12;7.40;99.90
26909;DHT22;14477;51.038;4.588;2023-01-16T18:09:39;7.40;99.90
26909;DHT22;14477;51.038;4.588;2023-01-16T18:12:05;7.40;99.90
26909;DHT22;14477;51.038;4.588;2023-01-16T18:14:49;7.40;99.90
26909;DHT22;14477;51.038;4.588;2023-01-16T18:17:34;7.40;99.90
26909;DHT22;14477;51.038;4.588;2023-01-16T18:20:00;7.40;99.90
26909;DHT22;14477;51.038;4.588;2023-01-16T18:22:28;7.40;99.90
26909;DHT22;14477;51.038;4.588;2023-01-16T18:24:55;7.40;99.90
26909;DHT22;14477;51.038;4.588;2023-01-16T18:27:22;7.40;99.90
26909;DHT22;14477;51.038;4.588;2023-01-16T18:29:48;7.40;99.90
26909;DHT22;14477;51.038;4.588;2023-01-16T18:32:16;7.40;99.90
26909;DHT22;14477;51.038;4.588;2023-01-16T18:34:56;7.40;99.90
26909;DHT22;14477;51.038;4.588;2023-01-16T18:37:28;7.40;99.90
26909;DHT22;14477;51.038;4.588;2023-01-16T18:39:54;7.30;99.90
26909;DHT22;14477;51.038;4.588;2023-01-16T18:42:38;7.30;99.90
26909;DHT22;14477;51.038;4.588;2023-01-16T18:45:23;7.30;99.90
26909;DHT22;14477;51.038;4.588;2023-01-16T18:48:11;7.20;99.90
26909;DHT22;14477;51.038;4.588;2023-01-16T18:50:56;7.20;99.90
26909;DHT22;14477;51.038;4.588;2023-01-16T18:53:44;7.20;99.90
26909;DHT22;14477;51.038;4.588;2023-01-16T18:56:38;7.10;99.90
26909;DHT22;14477;51.038;4.588;2023-01-16T18:59:25;7.10;99.90
26909;DHT22;14477;51.038;4.588;2023-01-16T19:04:38;7.00;99.90
26909;DHT22;14477;51.038;4.588;2023-01-16T19:07:30;7.00;99.90
26909;DHT22;14477;51.038;4.588;2023-01-16T19:10:00;6.90;99.90